createdAt,value
2022-12-23T00:00:37.884Z,101030.48
2022-12-23T00:03:05.046Z,101028.42
2022-12-23T00:05:38.070Z,101034.11
2022-12-23T00:08:06.095Z,101043.23
2022-12-23T00:10:33.930Z,101043.79
2022-12-23T00:13:19.485Z,101050.17
2022-12-23T00:15:46.389Z,101042.27
2022-12-23T00:18:13.071Z,101028.10
2022-12-23T00:20:39.673Z,101022.46
2022-12-23T00:23:06.589Z,101015.66
2022-12-23T00:25:43.958Z,101011.64
2022-12-23T00:28:13.633Z,101016.73
2022-12-23T00:30:58.994Z,101012.85
2022-12-23T00:33:28.930Z,101005.09
2022-12-23T00:35:55.971Z,101017.78
2022-12-23T00:38:41.645Z,101023.84
2022-12-23T00:41:35.584Z,101028.58
2022-12-23T00:44:03.766Z,101035.20
2022-12-23T00:46:30.777Z,101033.52
2022-12-23T00:49:16.514Z,101035.39
2022-12-23T00:51:43.174Z,101049.54
2022-12-23T00:54:09.722Z,101055.34
2022-12-23T00:56:36.466Z,101056.87
2022-12-23T00:59:03.184Z,101049.89
2022-12-23T01:01:48.758Z,101051.83
2022-12-23T01:04:35.934Z,101051.66
2022-12-23T01:07:03.515Z,101054.30
2022-12-23T01:09:30.497Z,101063.00
2022-12-23T01:11:57.261Z,101058.71
2022-12-23T01:14:24.801Z,101052.62
2022-12-23T01:16:51.738Z,101058.31
2022-12-23T01:19:19.176Z,101057.83
2022-12-23T01:21:45.926Z,101059.25
2022-12-23T01:24:12.627Z,101069.77
2022-12-23T01:26:39.221Z,101058.34
2022-12-23T01:29:05.985Z,101047.16
2022-12-23T01:31:32.811Z,101044.89
2022-12-23T01:33:59.564Z,101054.79
2022-12-23T01:36:26.410Z,101070.00
2022-12-23T01:38:53.216Z,101082.79
2022-12-23T01:41:42.172Z,101058.98
2022-12-23T01:45:07.714Z,101053.63
2022-12-23T01:47:49.483Z,101055.30
2022-12-23T01:50:54.832Z,101022.65
2022-12-23T01:53:30.630Z,101021.16
2022-12-23T01:56:02.944Z,101023.88
2022-12-23T01:58:37.963Z,101028.70
2022-12-23T02:01:24.556Z,101025.95
2022-12-23T02:03:54.990Z,101024.41
2022-12-23T02:06:43.409Z,101028.91
2022-12-23T02:09:18.671Z,101029.40
2022-12-23T02:12:31.790Z,101028.16
2022-12-23T02:15:42.051Z,101040.69
2022-12-23T02:18:21.259Z,101032.33
2022-12-23T02:20:53.904Z,101026.84
2022-12-23T02:23:48.546Z,101015.98
2022-12-23T02:26:27.520Z,101022.46
2022-12-23T02:29:00.230Z,101025.73
2022-12-23T02:31:38.796Z,101022.02
2022-12-23T02:34:17.570Z,101020.77
2022-12-23T02:37:09.407Z,101007.02
2022-12-23T02:39:49.373Z,101008.34
2022-12-23T02:42:25.976Z,101010.44
2022-12-23T02:45:01.765Z,101004.35
2022-12-23T02:47:52.687Z,101003.46
2022-12-23T02:50:36.317Z,101007.95
2022-12-23T02:53:27.273Z,101009.05
2022-12-23T02:55:56.364Z,101001.27
2022-12-23T02:58:29.276Z,100997.23
2022-12-23T03:00:58.117Z,100993.55
2022-12-23T03:03:26.271Z,100995.09
2022-12-23T03:05:54.426Z,100997.11
2022-12-23T03:08:30.343Z,100993.68
2022-12-23T03:11:15.208Z,100994.63
2022-12-23T03:14:11.007Z,100997.45
2022-12-23T03:17:21.045Z,100996.27
2022-12-23T03:19:57.187Z,100995.79
2022-12-23T03:22:40.796Z,100998.62
2022-12-23T03:25:37.944Z,100999.66
2022-12-23T03:28:15.937Z,101002.02
2022-12-23T03:30:46.564Z,100997.81
2022-12-23T03:33:42.460Z,100999.09
2022-12-23T03:36:18.277Z,101004.33
2022-12-23T03:38:46.165Z,101006.41
2022-12-23T03:41:18.415Z,100998.94
2022-12-23T03:43:55.116Z,101002.56
2022-12-23T03:46:38.037Z,101004.29
2022-12-23T03:49:15.317Z,101002.09
2022-12-23T03:51:55.471Z,100990.95
2022-12-23T03:54:31.684Z,100975.21
2022-12-23T03:57:03.582Z,100972.48
2022-12-23T03:59:37.194Z,100976.21
2022-12-23T04:02:09.899Z,100982.78
2022-12-23T04:04:45.479Z,100987.41
2022-12-23T04:07:30.576Z,100995.13
2022-12-23T04:09:58.715Z,100994.84
2022-12-23T04:12:30.132Z,100990.90
2022-12-23T04:14:57.395Z,100987.27
2022-12-23T04:17:24.189Z,100979.52
2022-12-23T04:19:52.449Z,100970.36
2022-12-23T04:22:19.233Z,100966.80
2022-12-23T04:24:45.978Z,100966.72
2022-12-23T04:27:14.731Z,100959.77
2022-12-23T04:29:41.659Z,100960.86
2022-12-23T04:32:09.513Z,100975.23
2022-12-23T04:34:36.211Z,100985.36
2022-12-23T04:37:02.910Z,100982.56
2022-12-23T04:39:29.553Z,100978.29
2022-12-23T04:41:56.275Z,100974.27
2022-12-23T04:44:23.018Z,100985.73
2022-12-23T04:46:49.757Z,100988.39
2022-12-23T04:49:16.602Z,100986.36
2022-12-23T04:51:43.272Z,100988.00
2022-12-23T04:54:09.810Z,100983.71
2022-12-23T04:56:36.528Z,100982.56
2022-12-23T04:59:04.273Z,100997.86
2022-12-23T05:01:31.129Z,100990.55
2022-12-23T05:03:57.876Z,100983.92
2022-12-23T05:06:24.472Z,100986.81
2022-12-23T05:08:51.238Z,100985.24
2022-12-23T05:11:17.998Z,100979.98
2022-12-23T05:13:44.906Z,100976.23
2022-12-23T05:16:11.585Z,100972.83
2022-12-23T05:18:38.311Z,100976.61
2022-12-23T05:21:05.340Z,100981.67
2022-12-23T05:23:32.108Z,100974.88
2022-12-23T05:25:59.053Z,100977.57
2022-12-23T05:28:25.889Z,100982.11
2022-12-23T05:31:03.871Z,100987.50
2022-12-23T05:33:32.833Z,100998.01
2022-12-23T05:35:59.729Z,100999.17
2022-12-23T05:38:27.163Z,101000.77
2022-12-23T05:40:54.121Z,100984.20
2022-12-23T05:43:21.424Z,100976.25
2022-12-23T05:45:49.564Z,100973.12
2022-12-23T05:48:16.565Z,100975.05
2022-12-23T05:50:43.329Z,100982.23
2022-12-23T05:53:10.222Z,100990.34
2022-12-23T05:55:37.062Z,100989.35
2022-12-23T05:58:03.815Z,100988.98
2022-12-23T06:00:30.721Z,100989.14
2022-12-23T06:02:57.630Z,100992.80
2022-12-23T06:05:24.617Z,100991.70
2022-12-23T06:07:51.566Z,100995.50
2022-12-23T06:10:18.823Z,101003.79
2022-12-23T06:12:45.494Z,101000.80
2022-12-23T06:15:12.813Z,101002.00
2022-12-23T06:17:39.554Z,101003.58
2022-12-23T06:20:07.115Z,101002.86
2022-12-23T06:22:33.947Z,101002.45
2022-12-23T06:25:00.596Z,101002.80
2022-12-23T06:27:27.195Z,101007.98
2022-12-23T06:29:53.980Z,101012.09
2022-12-23T06:32:20.738Z,101016.48
2022-12-23T06:34:49.109Z,101017.63
2022-12-23T06:37:15.860Z,101021.53
2022-12-23T06:39:42.546Z,101026.30
2022-12-23T06:42:09.119Z,101025.11
2022-12-23T06:44:35.746Z,101025.46
2022-12-23T06:47:02.398Z,101031.61
2022-12-23T06:49:29.226Z,101037.23
2022-12-23T06:51:55.973Z,101042.38
2022-12-23T06:54:22.907Z,101044.89
2022-12-23T06:56:49.564Z,101041.48
2022-12-23T06:59:16.117Z,101032.06
2022-12-23T07:01:42.990Z,101032.14
2022-12-23T07:04:10.592Z,101040.69
2022-12-23T07:06:37.811Z,101050.61
2022-12-23T07:09:04.587Z,101058.64
2022-12-23T07:11:31.543Z,101044.39
2022-12-23T07:13:59.707Z,101044.52
2022-12-23T07:16:26.948Z,101054.81
2022-12-23T07:18:53.795Z,101058.14
2022-12-23T07:21:28.601Z,101053.97
2022-12-23T07:23:56.511Z,101040.39
2022-12-23T07:26:23.186Z,101041.89
2022-12-23T07:28:49.863Z,101059.02
2022-12-23T07:31:17.042Z,101054.99
2022-12-23T07:33:44.076Z,101055.41
2022-12-23T07:36:10.838Z,101051.83
2022-12-23T07:38:37.659Z,101041.88
2022-12-23T07:41:04.412Z,101044.67
2022-12-23T07:43:31.094Z,101039.89
2022-12-23T07:46:00.848Z,101044.74
2022-12-23T07:48:28.313Z,101038.84
2022-12-23T07:51:01.884Z,101039.23
2022-12-23T07:53:28.827Z,101037.96
2022-12-23T07:55:56.791Z,101048.21
2022-12-23T07:58:24.393Z,101056.36
2022-12-23T08:00:51.172Z,101058.45
2022-12-23T08:03:18.108Z,101053.76
2022-12-23T08:05:44.953Z,101047.18
2022-12-23T08:08:12.061Z,101052.10
2022-12-23T08:10:44.446Z,101053.93
2022-12-23T08:13:14.712Z,101051.95
2022-12-23T08:15:41.400Z,101049.19
2022-12-23T08:18:08.163Z,101055.89
2022-12-23T08:20:34.898Z,101057.04
2022-12-23T08:23:01.700Z,101057.22
2022-12-23T08:25:28.268Z,101055.34
2022-12-23T08:27:55.104Z,101053.39
2022-12-23T08:30:21.862Z,101060.95
2022-12-23T08:32:48.608Z,101072.46
2022-12-23T08:35:15.426Z,101071.91
2022-12-23T08:37:42.167Z,101076.02
2022-12-23T08:40:09.950Z,101070.08
2022-12-23T08:42:36.792Z,101066.52
2022-12-23T08:45:03.867Z,101061.83
2022-12-23T08:47:30.569Z,101057.08
2022-12-23T08:49:57.144Z,101052.06
2022-12-23T08:52:23.829Z,101056.81
2022-12-23T08:54:50.332Z,101063.79
2022-12-23T08:57:17.090Z,101058.94
2022-12-23T08:59:43.781Z,101051.50
2022-12-23T09:02:12.116Z,101048.77
2022-12-23T09:04:39.240Z,101060.27
2022-12-23T09:07:06.226Z,101060.39
2022-12-23T09:09:32.983Z,101054.77
2022-12-23T09:11:59.846Z,101052.05
2022-12-23T09:14:26.661Z,101058.71
2022-12-23T09:16:53.359Z,101062.52
2022-12-23T09:19:20.649Z,101056.94
2022-12-23T09:21:47.323Z,101059.52
2022-12-23T09:24:14.115Z,101066.47
2022-12-23T09:26:40.967Z,101070.38
2022-12-23T09:29:07.722Z,101077.11
2022-12-23T09:31:37.736Z,101076.62
2022-12-23T09:34:06.065Z,101076.48
2022-12-23T09:36:32.820Z,101085.73
2022-12-23T09:38:59.628Z,101078.83
2022-12-23T09:42:01.625Z,101074.39
2022-12-23T09:45:05.962Z,101071.30
2022-12-23T09:47:34.182Z,101060.42
2022-12-23T09:50:10.306Z,101053.22
2022-12-23T09:52:57.544Z,101051.53
2022-12-23T09:55:29.244Z,101061.52
2022-12-23T09:58:03.556Z,101069.56
2022-12-23T10:00:39.713Z,101071.59
2022-12-23T10:03:40.582Z,101069.00
2022-12-23T10:06:19.358Z,101070.30
2022-12-23T10:08:49.052Z,101072.95
2022-12-23T10:11:30.032Z,101078.17
2022-12-23T10:14:02.099Z,101079.52
2022-12-23T10:16:55.053Z,101081.38
2022-12-23T10:19:43.373Z,101094.22
2022-12-23T10:22:33.357Z,101087.52
2022-12-23T10:25:02.139Z,101079.40
2022-12-23T10:27:39.238Z,101074.35
2022-12-23T10:30:54.109Z,101078.34
2022-12-23T10:33:18.057Z,101072.61
2022-12-23T10:35:58.319Z,101069.39
2022-12-23T10:38:30.206Z,101061.98
2022-12-23T10:41:09.036Z,101057.92
2022-12-23T10:43:45.150Z,101050.31
2022-12-23T10:46:23.930Z,101054.91
2022-12-23T10:49:12.276Z,101057.62
2022-12-23T10:51:47.836Z,101058.50
2022-12-23T10:54:28.439Z,101052.34
2022-12-23T10:56:55.643Z,101050.62
2022-12-23T10:59:27.095Z,101045.19
2022-12-23T11:02:23.043Z,101036.80
2022-12-23T11:04:50.391Z,101032.79
2022-12-23T11:10:23.541Z,101034.95
2022-12-23T11:12:53.217Z,101037.61
2022-12-23T11:15:26.116Z,101040.17
2022-12-23T11:18:12.775Z,101038.94
2022-12-23T11:20:44.454Z,101032.44
2022-12-23T11:23:33.210Z,101032.98
2022-12-23T11:26:18.790Z,101037.45
2022-12-23T11:28:53.131Z,101033.94
2022-12-23T11:31:35.513Z,101029.90
2022-12-23T11:34:14.397Z,101031.30
2022-12-23T11:36:41.484Z,101033.48
2022-12-23T11:39:14.205Z,101033.01
2022-12-23T11:41:50.092Z,101023.80
2022-12-23T11:44:22.700Z,101009.14
2022-12-23T11:46:50.567Z,101002.46
2022-12-23T11:49:28.035Z,101003.34
2022-12-23T11:52:16.914Z,101003.10
2022-12-23T11:54:54.453Z,100993.86
2022-12-23T11:57:30.883Z,100996.98
2022-12-23T12:00:02.540Z,100993.80
2022-12-23T12:02:43.630Z,100988.31
2022-12-23T12:05:16.592Z,100975.73
2022-12-23T12:07:45.250Z,100972.10
2022-12-23T12:10:33.522Z,100975.45
2022-12-23T12:13:05.952Z,100970.45
2022-12-23T12:15:53.201Z,100969.30
2022-12-23T12:18:22.171Z,100951.73
2022-12-23T12:20:53.984Z,100937.72
2022-12-23T12:23:39.528Z,100939.14
2022-12-23T12:26:12.555Z,100950.73
2022-12-23T12:28:43.801Z,100957.98
2022-12-23T12:31:26.868Z,100953.23
2022-12-23T12:34:13.738Z,100949.95
2022-12-23T12:36:59.832Z,100953.23
2022-12-23T12:39:41.362Z,100957.50
2022-12-23T12:42:21.886Z,100963.95
2022-12-23T12:45:16.633Z,100959.48
2022-12-23T12:48:13.079Z,100957.23
2022-12-23T12:51:10.936Z,100948.73
2022-12-23T12:53:46.950Z,100956.55
2022-12-23T12:56:30.992Z,100953.52
2022-12-23T12:58:58.588Z,100940.70
2022-12-23T13:01:56.968Z,100933.71
2022-12-23T13:04:59.496Z,100919.64
2022-12-23T13:07:54.360Z,100912.00
2022-12-23T13:10:53.211Z,100921.91
2022-12-23T13:13:51.194Z,100920.19
2022-12-23T13:16:36.319Z,100922.04
2022-12-23T13:19:40.823Z,100913.99
2022-12-23T13:22:16.484Z,100929.56
2022-12-23T13:25:03.819Z,100928.22
2022-12-23T13:27:41.239Z,100933.31
2022-12-23T13:30:18.033Z,100939.70
2022-12-23T13:33:09.144Z,100943.34
2022-12-23T13:36:33.827Z,100949.67
2022-12-23T13:39:25.312Z,100964.70
2022-12-23T13:41:58.588Z,100967.66
2022-12-23T13:44:31.170Z,100967.38
2022-12-23T13:47:16.356Z,100959.59
2022-12-23T13:49:53.067Z,100956.48
2022-12-23T13:52:44.270Z,100962.80
2022-12-23T13:55:16.830Z,100968.95
2022-12-23T13:58:18.109Z,100972.45
2022-12-23T14:00:45.467Z,100971.84
2022-12-23T14:03:15.069Z,100968.75
2022-12-23T14:05:45.314Z,100970.41
2022-12-23T14:08:26.615Z,100968.70
2022-12-23T14:11:27.405Z,100958.20
2022-12-23T14:14:06.109Z,100966.14
2022-12-23T14:16:45.184Z,100974.98
2022-12-23T14:19:11.910Z,100969.95
2022-12-23T14:21:46.738Z,100973.09
2022-12-23T14:24:54.908Z,100978.85
2022-12-23T14:27:33.828Z,100977.43
2022-12-23T14:30:15.686Z,100976.64
2022-12-23T14:32:49.392Z,100974.07
2022-12-23T14:35:25.188Z,100972.72
2022-12-23T14:38:08.606Z,100975.36
2022-12-23T14:40:38.263Z,100979.23
2022-12-23T14:43:26.808Z,100974.38
2022-12-23T14:45:54.600Z,100980.16
2022-12-23T14:48:33.369Z,100977.02
2022-12-23T14:51:23.610Z,100974.23
2022-12-23T14:53:54.132Z,100972.70
2022-12-23T14:56:39.101Z,100977.90
2022-12-23T14:59:05.749Z,100988.16
2022-12-23T15:01:32.513Z,100989.54
2022-12-23T15:04:05.459Z,100984.30
2022-12-23T15:06:45.364Z,100986.61
2022-12-23T15:09:31.633Z,100985.02
2022-12-23T15:12:01.941Z,100969.88
2022-12-23T15:14:34.517Z,100967.96
2022-12-23T15:17:18.786Z,100966.95
2022-12-23T15:19:47.733Z,100965.16
2022-12-23T15:22:23.650Z,100966.24
2022-12-23T15:24:55.276Z,100960.74
2022-12-23T15:27:30.213Z,100948.70
2022-12-23T15:29:58.241Z,100941.55
2022-12-23T15:32:26.799Z,100935.72
2022-12-23T15:35:05.674Z,100934.88
2022-12-23T15:37:33.052Z,100946.01
2022-12-23T15:40:09.513Z,100960.11
2022-12-23T15:42:39.328Z,100952.87
2022-12-23T15:45:36.993Z,100948.30
2022-12-23T15:48:06.677Z,100935.85
2022-12-23T15:50:40.607Z,100928.17
2022-12-23T15:53:10.801Z,100930.34
2022-12-23T15:55:40.715Z,100923.27
2022-12-23T15:58:07.998Z,100935.95
2022-12-23T16:00:51.643Z,100951.52
2022-12-23T16:03:34.564Z,100967.42
2022-12-23T16:06:10.628Z,100970.36
2022-12-23T16:08:38.792Z,100969.60
2022-12-23T16:11:22.983Z,100967.27
2022-12-23T16:14:02.371Z,100972.48
2022-12-23T16:16:42.859Z,100979.44
2022-12-23T16:19:51.730Z,100980.52
2022-12-23T16:22:31.001Z,100976.28
2022-12-23T16:25:19.917Z,100983.58
2022-12-23T16:27:54.816Z,100982.43
2022-12-23T16:30:25.906Z,100989.02
2022-12-23T16:32:56.244Z,100983.20
2022-12-23T16:35:28.455Z,100984.44
2022-12-23T16:38:16.866Z,100990.96
2022-12-23T16:40:46.485Z,100997.98
2022-12-23T16:43:13.972Z,101005.51
2022-12-23T16:45:41.321Z,101001.48
2022-12-23T16:48:23.915Z,100999.65
2022-12-23T16:50:53.528Z,100991.12
2022-12-23T16:53:20.476Z,100988.15
2022-12-23T16:55:55.061Z,100999.92
2022-12-23T16:58:25.629Z,101003.59
2022-12-23T17:00:53.375Z,100996.74
2022-12-23T17:03:21.162Z,101001.55
2022-12-23T17:05:48.560Z,101005.98
2022-12-23T17:08:15.503Z,101005.55
2022-12-23T17:10:44.785Z,101008.45
2022-12-23T17:13:14.113Z,101001.10
2022-12-23T17:15:40.936Z,100999.27
2022-12-23T17:18:16.744Z,100997.62
2022-12-23T17:20:46.256Z,100984.80
2022-12-23T17:23:29.665Z,100981.68
2022-12-23T17:25:57.177Z,100987.66
2022-12-23T17:28:28.967Z,100989.10
2022-12-23T17:30:56.371Z,100987.67
2022-12-23T17:33:26.892Z,100980.08
2022-12-23T17:35:53.596Z,100982.98
2022-12-23T17:38:20.154Z,100987.61
2022-12-23T17:40:48.221Z,100988.64
2022-12-23T17:43:16.586Z,100991.51
2022-12-23T17:45:44.480Z,101004.73
2022-12-23T17:48:17.933Z,101001.16
2022-12-23T17:50:47.884Z,100993.66
2022-12-23T17:53:19.662Z,100989.02
2022-12-23T17:55:46.636Z,101005.58
2022-12-23T17:58:14.688Z,101020.71
2022-12-23T18:00:41.829Z,101026.68
2022-12-23T18:03:23.398Z,101033.11
2022-12-23T18:05:54.307Z,101032.80
2022-12-23T18:08:26.007Z,101026.77
2022-12-23T18:10:52.658Z,101020.63
2022-12-23T18:13:20.014Z,101029.83
2022-12-23T18:15:47.802Z,101024.98
2022-12-23T18:18:27.249Z,101015.20
2022-12-23T18:20:58.463Z,101024.83
2022-12-23T18:23:28.215Z,101035.65
2022-12-23T18:25:56.043Z,101026.84
2022-12-23T18:28:23.463Z,101022.77
2022-12-23T18:30:52.324Z,101014.45
2022-12-23T18:33:19.740Z,101017.93
2022-12-23T18:35:49.354Z,101026.13
2022-12-23T18:38:17.861Z,101013.60
2022-12-23T18:40:45.537Z,101006.66
2022-12-23T18:43:22.020Z,101007.63
2022-12-23T18:45:53.286Z,101000.85
2022-12-23T18:48:21.584Z,101001.52
2022-12-23T18:50:49.021Z,101007.67
2022-12-23T18:53:25.392Z,100993.98
2022-12-23T18:55:53.790Z,100980.21
2022-12-23T18:58:21.479Z,100979.50
2022-12-23T19:00:49.595Z,100993.23
2022-12-23T19:03:21.087Z,101005.22
2022-12-23T19:05:49.048Z,101003.19
2022-12-23T19:08:20.284Z,100988.88
2022-12-23T19:10:51.542Z,100974.33
2022-12-23T19:13:19.194Z,100975.17
2022-12-23T19:15:46.324Z,100979.66
2022-12-23T19:18:15.120Z,100962.73
2022-12-23T19:20:46.057Z,100942.70
2022-12-23T19:23:13.440Z,100947.66
2022-12-23T19:25:42.134Z,100948.63
2022-12-23T19:28:09.911Z,100960.88
2022-12-23T19:30:36.921Z,100963.46
2022-12-23T19:33:03.794Z,100968.66
2022-12-23T19:35:30.523Z,100989.45
2022-12-23T19:37:57.364Z,101008.48
2022-12-23T19:40:24.114Z,101005.75
2022-12-23T19:42:50.794Z,101009.23
2022-12-23T19:45:17.396Z,101014.61
2022-12-23T19:47:44.332Z,101011.50
2022-12-23T19:50:11.665Z,101012.43
2022-12-23T19:52:38.423Z,101024.42
2022-12-23T19:55:05.775Z,101024.16
2022-12-23T19:57:33.648Z,101021.48
2022-12-23T20:00:01.941Z,101025.16
2022-12-23T20:02:38.803Z,101029.77
2022-12-23T20:05:06.285Z,101029.34
2022-12-23T20:07:35.310Z,101026.53
2022-12-23T20:10:02.645Z,101006.85
2022-12-23T20:12:29.330Z,100991.91
2022-12-23T20:14:55.984Z,100998.23
2022-12-23T20:17:22.824Z,100998.63
2022-12-23T20:19:49.492Z,101000.87
2022-12-23T20:22:16.191Z,101021.40
2022-12-23T20:24:43.613Z,101017.21
2022-12-23T20:27:12.130Z,101002.01
2022-12-23T20:29:40.711Z,101003.62
2022-12-23T20:32:07.572Z,101001.88
2022-12-23T20:34:39.084Z,101007.75
2022-12-23T20:37:07.007Z,101009.54
2022-12-23T20:39:33.843Z,101017.14
2022-12-23T20:42:00.683Z,101029.08
2022-12-23T20:44:36.558Z,101028.27
2022-12-23T20:47:07.423Z,101026.47
2022-12-23T20:49:34.294Z,101018.20
2022-12-23T20:52:01.759Z,101011.00
2022-12-23T20:54:33.311Z,101016.70
2022-12-23T20:57:02.524Z,101014.44
2022-12-23T20:59:29.473Z,101019.80
2022-12-23T21:01:59.099Z,101021.94
2022-12-23T21:04:26.341Z,101017.79
2022-12-23T21:06:53.016Z,101012.77
2022-12-23T21:09:20.170Z,101014.46
2022-12-23T21:11:48.048Z,101015.91
2022-12-23T21:14:16.094Z,101017.31
2022-12-23T21:16:43.029Z,101021.80
2022-12-23T21:19:24.453Z,101016.27
2022-12-23T21:21:52.375Z,101010.08
2022-12-23T21:24:19.792Z,101012.56
2022-12-23T21:26:55.738Z,101002.89
2022-12-23T21:29:23.797Z,100986.91
2022-12-23T21:31:50.568Z,101000.14
2022-12-23T21:34:18.165Z,101012.64
2022-12-23T21:36:45.032Z,101011.52
2022-12-23T21:39:15.796Z,101019.19
2022-12-23T21:41:42.615Z,101022.80
2022-12-23T21:44:11.711Z,101009.85
2022-12-23T21:46:38.442Z,101011.13
2022-12-23T21:49:05.329Z,101025.09
2022-12-23T21:51:41.794Z,101038.45
2022-12-23T21:54:10.995Z,101059.33
2022-12-23T21:56:39.195Z,101063.95
2022-12-23T21:59:08.702Z,101069.42
2022-12-23T22:01:35.655Z,101073.84
2022-12-23T22:04:02.718Z,101075.91
2022-12-23T22:06:32.817Z,101072.25
2022-12-23T22:08:59.905Z,101075.95
2022-12-23T22:11:30.175Z,101073.58
2022-12-23T22:13:58.818Z,101068.73
2022-12-23T22:16:28.109Z,101059.88
2022-12-23T22:18:57.000Z,101046.71
2022-12-23T22:21:25.489Z,101040.48
2022-12-23T22:23:54.001Z,101031.57
2022-12-23T22:26:25.605Z,101009.44
2022-12-23T22:28:55.081Z,100995.58
2022-12-23T22:31:31.738Z,100997.30
2022-12-23T22:33:59.419Z,101009.89
2022-12-23T22:36:26.868Z,101009.09
2022-12-23T22:38:56.172Z,100997.91
2022-12-23T22:41:24.313Z,100994.84
2022-12-23T22:43:51.137Z,100994.80
2022-12-23T22:46:18.552Z,100988.13
2022-12-23T22:48:46.622Z,100969.11
2022-12-23T22:51:16.668Z,100963.81
2022-12-23T22:53:43.399Z,100963.58
2022-12-23T22:56:12.729Z,100953.56
2022-12-23T22:58:40.128Z,100954.74
2022-12-23T23:01:16.815Z,100961.53
2022-12-23T23:03:43.535Z,100947.52
2022-12-23T23:06:11.631Z,100942.30
2022-12-23T23:08:38.475Z,100947.95
2022-12-23T23:11:05.789Z,100956.73
2022-12-23T23:13:35.143Z,100963.28
2022-12-23T23:16:02.713Z,100964.25
2022-12-23T23:18:30.237Z,100973.35
2022-12-23T23:20:57.134Z,100974.94
2022-12-23T23:23:23.875Z,100994.36
2022-12-23T23:25:50.679Z,101000.88
2022-12-23T23:28:17.949Z,100995.40
2022-12-23T23:30:45.185Z,100993.77
2022-12-23T23:33:12.040Z,100967.52
2022-12-23T23:35:38.661Z,100966.45
2022-12-23T23:38:05.520Z,100971.66
2022-12-23T23:40:32.376Z,100956.17
2022-12-23T23:42:59.199Z,100939.65
2022-12-23T23:45:27.489Z,100938.14
2022-12-23T23:47:55.062Z,100953.27
2022-12-23T23:50:22.489Z,100961.05
2022-12-23T23:52:49.179Z,100967.34
2022-12-23T23:55:16.264Z,100975.65
2022-12-23T23:57:42.912Z,100977.25
